createdAt,value
2018-10-03T00:01:58.665Z,13.90
2018-10-03T00:04:27.276Z,13.90
2018-10-03T00:06:55.843Z,13.90
2018-10-03T00:09:24.439Z,13.80
2018-10-03T00:11:53.021Z,13.90
2018-10-03T00:14:21.603Z,13.80
2018-10-03T00:16:50.740Z,13.80
2018-10-03T00:19:19.363Z,13.80
2018-10-03T00:21:47.932Z,13.80
2018-10-03T00:24:16.545Z,13.80
2018-10-03T00:26:45.100Z,13.80
2018-10-03T00:29:13.694Z,13.80
2018-10-03T00:31:42.254Z,13.80
2018-10-03T00:34:10.820Z,13.80
2018-10-03T00:36:39.392Z,13.80
2018-10-03T00:39:09.711Z,13.80
2018-10-03T00:41:38.694Z,13.80
2018-10-03T00:44:07.391Z,13.80
2018-10-03T00:46:35.968Z,13.80
2018-10-03T00:49:04.720Z,13.80
2018-10-03T00:51:33.301Z,13.80
2018-10-03T00:54:02.234Z,13.80
2018-10-03T00:56:30.969Z,13.80
2018-10-03T00:58:59.973Z,13.80
2018-10-03T01:01:28.911Z,13.80
2018-10-03T01:03:57.551Z,13.80
2018-10-03T01:06:27.099Z,13.70
2018-10-03T01:08:55.683Z,13.70
2018-10-03T01:11:24.326Z,13.80
2018-10-03T01:13:52.896Z,13.70
2018-10-03T01:16:21.614Z,13.70
2018-10-03T01:18:50.200Z,13.70
2018-10-03T01:21:18.931Z,13.70
2018-10-03T01:23:47.566Z,13.60
2018-10-03T01:26:16.155Z,13.70
2018-10-03T01:28:44.790Z,13.70
2018-10-03T01:31:13.761Z,13.70
2018-10-03T01:33:42.344Z,13.60
2018-10-03T01:36:10.893Z,13.60
2018-10-03T01:38:39.512Z,13.60
2018-10-03T01:41:08.091Z,13.60
2018-10-03T01:43:36.715Z,13.60
2018-10-03T01:46:05.912Z,13.60
2018-10-03T01:48:34.475Z,13.50
2018-10-03T01:51:03.119Z,13.50
2018-10-03T01:53:31.693Z,13.50
2018-10-03T01:56:00.286Z,13.40
2018-10-03T01:58:28.874Z,13.40
2018-10-03T02:00:57.525Z,13.40
2018-10-03T02:03:26.345Z,13.40
2018-10-03T02:05:55.375Z,13.50
2018-10-03T02:08:24.130Z,13.50
2018-10-03T02:10:52.852Z,13.50
2018-10-03T02:13:21.450Z,13.50
2018-10-03T02:15:50.177Z,13.50
2018-10-03T02:18:19.184Z,13.50
2018-10-03T02:20:47.787Z,13.60
2018-10-03T02:23:16.354Z,13.50
2018-10-03T02:25:44.979Z,13.50
2018-10-03T02:28:13.556Z,13.50
2018-10-03T02:30:42.535Z,13.50
2018-10-03T02:33:11.159Z,13.50
2018-10-03T02:35:39.760Z,13.50
2018-10-03T02:38:08.346Z,13.50
2018-10-03T02:40:37.025Z,13.50
2018-10-03T02:43:05.784Z,13.50
2018-10-03T02:45:34.440Z,13.50
2018-10-03T02:48:03.011Z,13.50
2018-10-03T02:50:31.604Z,13.50
2018-10-03T02:53:00.231Z,13.60
2018-10-03T02:55:28.828Z,13.60
2018-10-03T02:57:57.548Z,13.60
2018-10-03T03:00:26.111Z,13.50
2018-10-03T03:02:54.716Z,13.50
2018-10-03T03:05:23.388Z,13.50
2018-10-03T03:07:51.979Z,13.50
2018-10-03T03:10:27.347Z,13.50
2018-10-03T03:13:03.706Z,13.50
2018-10-03T03:15:32.339Z,13.50
2018-10-03T03:18:02.342Z,13.40
2018-10-03T03:20:37.496Z,13.40
2018-10-03T03:23:06.096Z,13.40
2018-10-03T03:25:34.734Z,13.40
2018-10-03T03:28:03.844Z,13.30
2018-10-03T03:30:32.455Z,13.40
2018-10-03T03:33:01.045Z,13.30
2018-10-03T03:35:29.651Z,13.30
2018-10-03T03:37:58.275Z,13.30
2018-10-03T03:40:27.697Z,13.30
2018-10-03T03:42:56.387Z,13.30
2018-10-03T03:45:24.979Z,13.30
2018-10-03T03:47:53.695Z,13.20
2018-10-03T03:50:22.308Z,13.20
2018-10-03T03:52:50.983Z,13.20
2018-10-03T03:55:19.693Z,13.10
2018-10-03T03:57:48.366Z,13.10
2018-10-03T04:00:17.047Z,13.00
2018-10-03T04:02:45.715Z,13.00
2018-10-03T04:05:14.392Z,12.90
2018-10-03T04:07:46.627Z,12.90
2018-10-03T04:10:15.276Z,12.90
2018-10-03T04:12:43.931Z,12.80
2018-10-03T04:15:12.620Z,12.80
2018-10-03T04:17:41.227Z,12.80
2018-10-03T04:20:09.947Z,12.80
2018-10-03T04:22:47.143Z,12.80
2018-10-03T04:25:15.793Z,12.80
2018-10-03T04:27:44.440Z,12.70
2018-10-03T04:30:13.119Z,12.70
2018-10-03T04:32:41.792Z,12.70
2018-10-03T04:35:10.395Z,12.80
2018-10-03T04:37:39.003Z,12.70
2018-10-03T04:40:07.654Z,12.70
2018-10-03T04:42:36.248Z,12.70
2018-10-03T04:45:05.002Z,12.80
2018-10-03T04:47:33.547Z,12.80
2018-10-03T04:50:02.274Z,12.90
2018-10-03T04:52:30.843Z,12.90
2018-10-03T04:54:59.469Z,12.90
2018-10-03T04:57:28.052Z,12.90
2018-10-03T04:59:56.640Z,13.00
2018-10-03T05:02:25.256Z,13.00
2018-10-03T05:04:53.819Z,13.00
2018-10-03T05:07:22.392Z,13.00
2018-10-03T05:09:50.999Z,13.00
2018-10-03T05:12:19.711Z,13.00
2018-10-03T05:14:48.281Z,13.00
2018-10-03T05:17:17.099Z,13.00
2018-10-03T05:19:45.676Z,13.00
2018-10-03T05:22:14.327Z,13.00
2018-10-03T05:24:42.911Z,13.00
2018-10-03T05:27:11.493Z,13.00
2018-10-03T05:29:40.504Z,13.10
2018-10-03T05:32:09.124Z,13.10
2018-10-03T05:34:37.688Z,13.10
2018-10-03T05:37:06.432Z,13.10
2018-10-03T05:39:35.033Z,13.10
2018-10-03T05:42:03.873Z,13.10
2018-10-03T05:44:32.490Z,13.00
2018-10-03T05:47:01.137Z,13.00
2018-10-03T05:49:29.712Z,13.00
2018-10-03T05:51:58.303Z,13.00
2018-10-03T05:54:26.895Z,12.90
2018-10-03T05:56:55.506Z,12.90
2018-10-03T05:59:24.089Z,12.90
2018-10-03T06:01:52.696Z,12.90
2018-10-03T06:04:21.350Z,12.90
2018-10-03T06:06:49.935Z,12.90
2018-10-03T06:09:34.592Z,12.90
2018-10-03T06:12:03.197Z,12.90
2018-10-03T06:14:31.843Z,12.90
2018-10-03T06:17:01.071Z,12.90
2018-10-03T06:19:29.731Z,12.90
2018-10-03T06:21:58.408Z,13.00
2018-10-03T06:24:27.055Z,13.00
2018-10-03T06:26:55.712Z,13.00
2018-10-03T06:29:24.379Z,13.00
2018-10-03T06:31:53.021Z,13.10
2018-10-03T06:34:21.748Z,13.10
2018-10-03T06:36:50.579Z,13.10
2018-10-03T06:39:19.248Z,13.20
2018-10-03T06:41:48.055Z,13.20
2018-10-03T06:44:16.752Z,13.20
2018-10-03T06:46:45.376Z,13.30
2018-10-03T06:49:15.149Z,13.30
2018-10-03T06:51:43.970Z,13.30
2018-10-03T06:54:12.775Z,13.30
2018-10-03T06:56:41.592Z,13.30
2018-10-03T06:59:11.448Z,13.40
2018-10-03T07:01:40.100Z,13.40
2018-10-03T07:04:08.755Z,13.50
2018-10-03T07:06:37.383Z,13.50
2018-10-03T07:09:07.684Z,13.60
2018-10-03T07:11:36.385Z,13.60
2018-10-03T07:14:04.969Z,13.60
2018-10-03T07:16:33.612Z,13.70
2018-10-03T07:19:02.235Z,13.70
2018-10-03T07:21:30.859Z,13.70
2018-10-03T07:23:59.523Z,13.70
2018-10-03T07:26:28.164Z,13.70
2018-10-03T07:28:56.812Z,13.80
2018-10-03T07:31:25.414Z,14.00
2018-10-03T07:33:54.007Z,14.10
2018-10-03T07:36:22.912Z,14.10
2018-10-03T07:38:51.676Z,14.20
2018-10-03T07:41:20.472Z,14.30
2018-10-03T07:43:49.092Z,14.40
2018-10-03T07:46:17.685Z,14.50
2018-10-03T07:48:46.327Z,14.70
2018-10-03T07:51:15.430Z,14.80
2018-10-03T07:53:44.150Z,15.10
2018-10-03T07:56:13.323Z,15.20
2018-10-03T07:58:42.736Z,15.30
2018-10-03T08:01:11.793Z,15.30
2018-10-03T08:03:40.406Z,15.40
2018-10-03T08:06:09.008Z,15.40
2018-10-03T08:08:37.713Z,15.50
2018-10-03T08:11:06.364Z,15.50
2018-10-03T08:13:34.942Z,15.60
2018-10-03T08:16:03.534Z,15.60
2018-10-03T08:18:32.116Z,15.50
2018-10-03T08:21:01.486Z,15.60
2018-10-03T08:23:30.116Z,15.60
2018-10-03T08:25:59.465Z,15.50
2018-10-03T08:28:28.035Z,15.40
2018-10-03T08:30:56.619Z,15.50
2018-10-03T08:33:25.529Z,15.60
2018-10-03T08:35:54.107Z,15.60
2018-10-03T08:38:22.860Z,15.60
2018-10-03T08:40:51.463Z,15.70
2018-10-03T08:43:20.040Z,15.70
2018-10-03T08:45:48.632Z,15.80
2018-10-03T08:48:17.231Z,15.80
2018-10-03T08:50:45.808Z,15.90
2018-10-03T08:53:14.453Z,16.10
2018-10-03T08:55:43.919Z,16.20
2018-10-03T08:58:12.573Z,16.20
2018-10-03T09:00:41.337Z,16.10
2018-10-03T09:03:09.936Z,16.00
2018-10-03T09:05:38.599Z,15.90
2018-10-03T09:08:14.091Z,15.90
2018-10-03T09:10:43.938Z,15.80
2018-10-03T09:13:13.210Z,15.80
2018-10-03T09:15:41.809Z,15.80
2018-10-03T09:18:10.747Z,15.90
2018-10-03T09:20:39.352Z,16.00
2018-10-03T09:23:07.991Z,16.10
2018-10-03T09:25:36.709Z,16.20
2018-10-03T09:28:05.328Z,16.40
2018-10-03T09:30:33.907Z,16.50
2018-10-03T09:33:02.556Z,16.70
2018-10-03T09:35:31.144Z,16.80
2018-10-03T09:37:59.759Z,16.80
2018-10-03T09:40:28.397Z,16.90
2018-10-03T09:42:56.966Z,16.90
2018-10-03T09:45:25.727Z,17.10
2018-10-03T09:47:54.355Z,17.20
2018-10-03T09:50:22.976Z,17.20
2018-10-03T09:52:51.558Z,17.40
2018-10-03T09:55:20.138Z,17.40
2018-10-03T09:57:48.774Z,17.50
2018-10-03T10:02:25.001Z,17.50
2018-10-03T10:04:53.676Z,17.40
2018-10-03T10:07:22.293Z,17.40
2018-10-03T10:09:50.888Z,17.20
2018-10-03T10:12:19.473Z,17.10
2018-10-03T10:14:48.064Z,16.90
2018-10-03T10:17:16.751Z,16.90
2018-10-03T10:19:45.462Z,16.90
2018-10-03T10:22:14.036Z,17.00
2018-10-03T10:24:42.617Z,17.20
2018-10-03T10:27:11.522Z,17.40
2018-10-03T10:29:40.222Z,17.70
2018-10-03T10:32:08.859Z,18.00
2018-10-03T10:34:37.428Z,17.90
2018-10-03T10:37:06.039Z,17.60
2018-10-03T10:39:34.644Z,17.60
2018-10-03T10:42:03.238Z,17.60
2018-10-03T10:44:31.849Z,17.60
2018-10-03T10:47:00.427Z,17.80
2018-10-03T10:49:29.065Z,17.90
2018-10-03T10:51:57.656Z,17.90
2018-10-03T10:54:27.005Z,17.90
2018-10-03T10:56:55.760Z,17.80
2018-10-03T10:59:24.369Z,17.90
2018-10-03T11:01:53.068Z,17.90
2018-10-03T11:04:21.735Z,18.00
2018-10-03T11:06:50.335Z,18.10
2018-10-03T11:09:18.956Z,18.10
2018-10-03T11:11:47.541Z,18.20
2018-10-03T11:14:16.227Z,18.30
2018-10-03T11:16:44.908Z,18.40
2018-10-03T11:19:13.502Z,18.50
2018-10-03T11:21:42.310Z,18.70
2018-10-03T11:24:11.012Z,18.90
2018-10-03T11:26:39.609Z,18.90
2018-10-03T11:29:08.256Z,18.90
2018-10-03T11:31:37.287Z,18.90
2018-10-03T11:34:05.881Z,19.10
2018-10-03T11:36:34.448Z,19.40
2018-10-03T11:39:03.209Z,19.70
2018-10-03T11:41:31.816Z,19.90
2018-10-03T11:44:01.274Z,20.10
2018-10-03T11:46:29.807Z,20.40
2018-10-03T11:48:58.395Z,20.30
2018-10-03T11:51:27.174Z,20.00
2018-10-03T11:53:55.751Z,19.40
2018-10-03T11:56:24.431Z,19.00
2018-10-03T11:58:53.012Z,19.00
2018-10-03T12:01:21.611Z,18.90
2018-10-03T12:03:50.208Z,19.60
2018-10-03T12:06:18.799Z,18.60
2018-10-03T12:08:47.431Z,18.40
2018-10-03T12:11:16.020Z,18.50
2018-10-03T12:13:44.632Z,18.90
2018-10-03T12:16:13.286Z,19.20
2018-10-03T12:18:41.876Z,19.20
2018-10-03T12:21:10.524Z,18.90
2018-10-03T12:23:39.320Z,18.60
2018-10-03T12:26:07.933Z,18.40
2018-10-03T12:28:36.533Z,18.40
2018-10-03T12:31:05.168Z,19.00
2018-10-03T12:33:33.843Z,19.70
2018-10-03T12:36:02.544Z,20.20
2018-10-03T12:38:31.501Z,20.40
2018-10-03T12:41:00.170Z,20.40
2018-10-03T12:43:28.737Z,20.30
2018-10-03T12:45:57.464Z,20.20
2018-10-03T12:48:26.330Z,20.20
2018-10-03T12:50:55.032Z,20.20
2018-10-03T12:53:24.005Z,20.10
2018-10-03T12:55:52.780Z,19.90
2018-10-03T12:58:21.488Z,19.60
2018-10-03T13:00:50.147Z,19.50
2018-10-03T13:03:18.769Z,19.50
2018-10-03T13:05:47.363Z,19.30
2018-10-03T13:08:16.356Z,19.20
2018-10-03T13:10:45.045Z,18.90
2018-10-03T13:13:13.671Z,18.60
2018-10-03T13:15:42.728Z,18.40
2018-10-03T13:18:11.336Z,18.30
2018-10-03T13:20:39.971Z,18.20
2018-10-03T13:23:08.722Z,18.20
2018-10-03T13:25:37.420Z,18.10
2018-10-03T13:28:06.144Z,18.00
2018-10-03T13:30:34.778Z,17.90
2018-10-03T13:33:03.453Z,17.70
2018-10-03T13:35:32.663Z,17.60
2018-10-03T13:38:01.275Z,17.60
2018-10-03T13:40:29.968Z,17.60
2018-10-03T13:42:58.604Z,17.50
2018-10-03T13:45:27.209Z,17.50
2018-10-03T13:47:55.922Z,17.50
2018-10-03T13:50:24.503Z,17.60
2018-10-03T13:52:53.384Z,17.60
2018-10-03T13:55:22.001Z,17.80
2018-10-03T13:57:50.609Z,17.90
2018-10-03T14:00:19.220Z,17.80
2018-10-03T14:02:47.800Z,17.70
2018-10-03T14:05:16.438Z,17.60
2018-10-03T14:07:45.031Z,17.60
2018-10-03T14:10:13.631Z,17.50
2018-10-03T14:12:42.344Z,17.50
2018-10-03T14:15:10.953Z,17.40
2018-10-03T14:17:39.563Z,17.30
2018-10-03T14:20:08.164Z,17.30
2018-10-03T14:22:36.812Z,17.20
2018-10-03T14:25:05.621Z,17.10
2018-10-03T14:27:34.304Z,17.10
2018-10-03T14:30:02.962Z,17.10
2018-10-03T14:32:31.564Z,17.00
2018-10-03T14:35:00.185Z,16.90
2018-10-03T14:37:28.822Z,16.90
2018-10-03T14:39:57.421Z,16.80
2018-10-03T14:42:26.244Z,16.80
2018-10-03T14:44:54.824Z,16.80
2018-10-03T14:47:23.425Z,16.80
2018-10-03T14:49:52.054Z,16.80
2018-10-03T14:52:20.868Z,16.80
2018-10-03T14:54:49.323Z,16.80
2018-10-03T14:57:17.927Z,16.70
2018-10-03T14:59:46.504Z,16.70
2018-10-03T15:02:15.096Z,16.60
2018-10-03T15:04:43.662Z,16.70
2018-10-03T15:07:12.378Z,16.70
2018-10-03T15:09:43.403Z,16.70
2018-10-03T15:12:11.987Z,16.70
2018-10-03T15:14:40.639Z,16.60
2018-10-03T15:17:09.581Z,16.60
2018-10-03T15:19:38.220Z,16.50
2018-10-03T15:22:07.040Z,16.50
2018-10-03T15:24:35.687Z,16.50
2018-10-03T15:27:04.398Z,16.40
2018-10-03T15:29:33.067Z,16.30
2018-10-03T15:32:01.624Z,16.20
2018-10-03T15:34:30.229Z,16.20
2018-10-03T15:36:58.959Z,16.10
2018-10-03T15:39:27.542Z,16.10
2018-10-03T15:41:56.172Z,16.00
2018-10-03T15:44:24.743Z,15.90
2018-10-03T15:46:53.321Z,15.90
2018-10-03T15:49:21.895Z,15.90
2018-10-03T15:51:50.479Z,15.80
2018-10-03T15:54:19.048Z,15.90
2018-10-03T15:56:47.696Z,15.90
2018-10-03T15:59:16.315Z,15.90
2018-10-03T16:01:44.959Z,15.80
2018-10-03T16:04:13.560Z,15.80
2018-10-03T16:06:42.164Z,15.80
2018-10-03T16:09:11.299Z,15.80
2018-10-03T16:11:40.420Z,15.70
2018-10-03T16:14:09.115Z,15.60
2018-10-03T16:16:37.699Z,15.60
2018-10-03T16:19:06.372Z,15.60
2018-10-03T16:21:34.995Z,15.60
2018-10-03T16:24:03.599Z,15.60
2018-10-03T16:26:32.211Z,15.50
2018-10-03T16:29:01.288Z,15.50
2018-10-03T16:31:30.267Z,15.40
2018-10-03T16:33:59.036Z,15.50
2018-10-03T16:36:27.681Z,15.50
2018-10-03T16:38:56.376Z,15.40
2018-10-03T16:41:25.288Z,15.40
2018-10-03T16:43:53.919Z,15.30
2018-10-03T16:46:22.572Z,15.30
2018-10-03T16:48:51.156Z,15.30
2018-10-03T16:51:19.730Z,15.30
2018-10-03T16:53:48.384Z,15.30
2018-10-03T16:56:16.958Z,15.30
2018-10-03T16:58:45.544Z,15.50
2018-10-03T17:01:14.167Z,15.60
2018-10-03T17:03:42.785Z,15.60
2018-10-03T17:06:11.763Z,15.50
2018-10-03T17:08:40.383Z,15.40
2018-10-03T17:11:08.960Z,15.30
2018-10-03T17:13:49.635Z,15.20
2018-10-03T17:16:18.313Z,15.20
2018-10-03T17:18:47.060Z,15.10
2018-10-03T17:21:15.682Z,15.00
2018-10-03T17:23:44.270Z,15.00
2018-10-03T17:26:12.907Z,14.90
2018-10-03T17:28:41.550Z,14.90
2018-10-03T17:31:10.143Z,14.80
2018-10-03T17:33:38.755Z,14.90
2018-10-03T17:36:07.981Z,14.90
2018-10-03T17:38:36.596Z,14.90
2018-10-03T17:41:05.172Z,14.90
2018-10-03T17:43:33.789Z,14.90
2018-10-03T17:46:03.065Z,14.90
2018-10-03T17:48:31.756Z,14.90
2018-10-03T17:51:00.479Z,14.90
2018-10-03T17:53:29.170Z,14.90
2018-10-03T17:55:57.835Z,14.90
2018-10-03T17:58:26.651Z,14.90
2018-10-03T18:00:55.246Z,15.00
2018-10-03T18:03:23.827Z,15.00
2018-10-03T18:05:52.496Z,14.90
2018-10-03T18:08:21.092Z,14.90
2018-10-03T18:10:49.826Z,15.00
2018-10-03T18:13:20.080Z,15.00
2018-10-03T18:15:48.724Z,15.00
2018-10-03T18:18:17.391Z,15.00
2018-10-03T18:20:46.442Z,15.00
2018-10-03T18:23:15.120Z,15.00
2018-10-03T18:25:43.765Z,15.00
2018-10-03T18:28:12.652Z,14.90
2018-10-03T18:30:41.240Z,14.80
2018-10-03T18:33:09.863Z,14.80
2018-10-03T18:35:38.937Z,14.70
2018-10-03T18:38:07.625Z,14.70
2018-10-03T18:40:36.414Z,14.70
2018-10-03T18:43:05.226Z,14.60
2018-10-03T18:45:33.897Z,14.60
2018-10-03T18:48:03.664Z,14.60
2018-10-03T18:50:36.561Z,14.60
2018-10-03T18:53:06.264Z,14.60
2018-10-03T18:55:34.834Z,14.70
2018-10-03T18:58:03.684Z,14.70
2018-10-03T19:00:32.440Z,14.70
2018-10-03T19:03:01.292Z,14.70
2018-10-03T19:05:30.223Z,14.80
2018-10-03T19:07:59.892Z,14.80
2018-10-03T19:10:28.599Z,14.80
2018-10-03T19:12:57.859Z,14.80
2018-10-03T19:15:27.591Z,14.80
2018-10-03T19:17:56.287Z,14.80
2018-10-03T19:20:24.861Z,14.80
2018-10-03T19:22:53.472Z,14.80
2018-10-03T19:25:22.887Z,14.80
2018-10-03T19:27:51.524Z,14.80
2018-10-03T19:30:20.196Z,14.80
2018-10-03T19:32:48.784Z,14.80
2018-10-03T19:35:17.685Z,14.80
2018-10-03T19:37:46.573Z,14.80
2018-10-03T19:40:15.296Z,14.80
2018-10-03T19:42:43.892Z,14.80
2018-10-03T19:45:12.474Z,14.80
2018-10-03T19:47:41.053Z,14.80
2018-10-03T19:50:09.833Z,14.80
2018-10-03T19:52:38.431Z,14.80
2018-10-03T19:55:07.056Z,14.80
2018-10-03T19:57:35.656Z,14.80
2018-10-03T20:00:04.335Z,14.90
2018-10-03T20:02:32.965Z,14.90
2018-10-03T20:05:01.569Z,14.90
2018-10-03T20:07:30.161Z,14.90
2018-10-03T20:09:58.763Z,14.90
2018-10-03T20:12:27.392Z,14.90
2018-10-03T20:14:56.157Z,14.90
2018-10-03T20:17:24.749Z,14.90
2018-10-03T20:19:53.975Z,14.90
2018-10-03T20:22:22.568Z,14.90
2018-10-03T20:24:51.186Z,15.00
2018-10-03T20:27:19.859Z,15.00
2018-10-03T20:29:48.472Z,15.00
2018-10-03T20:32:17.047Z,15.00
2018-10-03T20:34:45.677Z,14.90
2018-10-03T20:37:14.468Z,14.90
2018-10-03T20:39:43.156Z,14.90
2018-10-03T20:42:12.188Z,14.90
2018-10-03T20:44:40.772Z,14.90
2018-10-03T20:47:09.382Z,14.90
2018-10-03T20:49:38.090Z,14.90
2018-10-03T20:52:06.805Z,14.90
2018-10-03T20:54:35.445Z,14.90
2018-10-03T20:57:04.122Z,14.80
2018-10-03T20:59:32.715Z,14.90
2018-10-03T21:02:01.308Z,14.80
2018-10-03T21:04:29.909Z,14.90
2018-10-03T21:06:58.488Z,14.80
2018-10-03T21:09:27.105Z,14.90
2018-10-03T21:11:56.029Z,14.90
2018-10-03T21:14:24.613Z,14.90
2018-10-03T21:16:53.241Z,14.90
2018-10-03T21:19:22.125Z,14.90
2018-10-03T21:21:50.836Z,14.90
2018-10-03T21:24:19.444Z,14.90
2018-10-03T21:26:48.391Z,14.90
2018-10-03T21:29:17.055Z,14.90
2018-10-03T21:31:45.690Z,14.90
2018-10-03T21:34:14.305Z,14.90
2018-10-03T21:36:42.915Z,14.90
2018-10-03T21:39:11.595Z,14.90
2018-10-03T21:41:40.196Z,14.90
2018-10-03T21:44:08.872Z,14.90
2018-10-03T21:46:37.543Z,14.90
2018-10-03T21:49:06.799Z,14.90
2018-10-03T21:51:36.400Z,14.90
2018-10-03T21:54:05.007Z,15.00
2018-10-03T21:56:33.848Z,15.00
2018-10-03T21:59:04.039Z,15.00
2018-10-03T22:01:32.657Z,15.00
2018-10-03T22:04:01.306Z,15.00
2018-10-03T22:06:29.896Z,15.00
2018-10-03T22:08:58.504Z,15.00
2018-10-03T22:11:27.184Z,15.00
2018-10-03T22:13:55.775Z,15.00
2018-10-03T22:16:24.411Z,15.00
2018-10-03T22:18:53.034Z,15.00
2018-10-03T22:21:21.618Z,15.00
2018-10-03T22:23:50.192Z,15.00
2018-10-03T22:26:18.799Z,15.00
2018-10-03T22:28:47.364Z,15.10
2018-10-03T22:31:15.948Z,15.00
2018-10-03T22:33:44.533Z,15.00
2018-10-03T22:36:13.228Z,15.00
2018-10-03T22:38:41.863Z,15.10
2018-10-03T22:41:10.540Z,15.10
2018-10-03T22:43:39.151Z,15.00
2018-10-03T22:46:07.787Z,15.10
2018-10-03T22:48:36.428Z,15.10
2018-10-03T22:51:05.322Z,15.10
2018-10-03T22:53:33.920Z,15.00
2018-10-03T22:56:02.524Z,15.10
2018-10-03T22:58:31.127Z,15.10
2018-10-03T23:00:59.753Z,15.10
2018-10-03T23:03:28.371Z,15.10
2018-10-03T23:05:57.044Z,15.10
2018-10-03T23:08:25.652Z,15.10
2018-10-03T23:10:54.444Z,15.10
2018-10-03T23:13:23.094Z,15.10
2018-10-03T23:15:51.672Z,15.10
2018-10-03T23:18:20.275Z,15.10
2018-10-03T23:20:48.905Z,15.10
2018-10-03T23:23:17.482Z,15.10
2018-10-03T23:25:46.069Z,15.10
2018-10-03T23:28:14.653Z,15.10
2018-10-03T23:30:43.225Z,15.10
2018-10-03T23:33:11.820Z,15.10
2018-10-03T23:35:40.401Z,15.10
2018-10-03T23:38:08.963Z,15.10
2018-10-03T23:40:37.552Z,15.10
2018-10-03T23:43:06.285Z,15.10
2018-10-03T23:45:34.902Z,15.10
2018-10-03T23:48:03.580Z,15.10
2018-10-03T23:50:32.202Z,15.10
2018-10-03T23:53:00.860Z,15.10
2018-10-03T23:55:29.460Z,15.10
2018-10-03T23:57:58.112Z,15.10
